sensor_id;sensor_type;location;lat;lon;timestamp;pressure;altitude;pressure_sealevel;temperature;humidity
7768;BME280;3928;42.626;23.382;2022-10-26T00:00:09;94631.53;;;18.05;65.33
7768;BME280;3928;42.626;23.382;2022-10-26T00:02:36;94632.44;;;18.04;65.64
7768;BME280;3928;42.626;23.382;2022-10-26T00:05:03;94630.59;;;18.06;65.49
7768;BME280;3928;42.626;23.382;2022-10-26T00:07:31;94634.66;;;18.13;65.40
7768;BME280;3928;42.626;23.382;2022-10-26T00:09:58;94620.84;;;18.13;65.49
7768;BME280;3928;42.626;23.382;2022-10-26T00:12:25;94628.50;;;18.16;65.15
7768;BME280;3928;42.626;23.382;2022-10-26T00:14:52;94630.47;;;17.89;66.40
7768;BME280;3928;42.626;23.382;2022-10-26T00:17:19;94633.50;;;17.98;65.72
7768;BME280;3928;42.626;23.382;2022-10-26T00:19:45;94631.38;;;18.08;65.44
7768;BME280;3928;42.626;23.382;2022-10-26T00:22:16;94629.63;;;18.08;65.32
7768;BME280;3928;42.626;23.382;2022-10-26T00:24:46;94630.81;;;18.01;65.47
7768;BME280;3928;42.626;23.382;2022-10-26T00:27:15;94628.22;;;18.01;65.65
7768;BME280;3928;42.626;23.382;2022-10-26T00:29:42;94631.59;;;18.03;65.38
7768;BME280;3928;42.626;23.382;2022-10-26T00:32:11;94632.56;;;18.01;65.50
7768;BME280;3928;42.626;23.382;2022-10-26T00:34:38;94631.72;;;18.00;65.32
7768;BME280;3928;42.626;23.382;2022-10-26T00:37:05;94618.31;;;17.89;65.15
7768;BME280;3928;42.626;23.382;2022-10-26T00:39:32;94630.25;;;17.93;65.22
7768;BME280;3928;42.626;23.382;2022-10-26T00:42:00;94627.06;;;17.87;65.30
7768;BME280;3928;42.626;23.382;2022-10-26T00:44:55;94625.44;;;17.84;65.32
7768;BME280;3928;42.626;23.382;2022-10-26T00:47:30;94626.47;;;17.80;65.63
7768;BME280;3928;42.626;23.382;2022-10-26T00:50:03;94625.56;;;17.81;65.77
7768;BME280;3928;42.626;23.382;2022-10-26T00:52:32;94627.25;;;17.82;65.69
7768;BME280;3928;42.626;23.382;2022-10-26T00:55:00;94621.16;;;17.83;65.62
7768;BME280;3928;42.626;23.382;2022-10-26T00:57:28;94624.72;;;17.80;65.62
7768;BME280;3928;42.626;23.382;2022-10-26T00:59:56;94614.47;;;17.77;65.73
7768;BME280;3928;42.626;23.382;2022-10-26T01:02:23;94614.47;;;17.77;65.45
7768;BME280;3928;42.626;23.382;2022-10-26T01:04:51;94621.91;;;17.85;65.53
7768;BME280;3928;42.626;23.382;2022-10-26T01:07:19;94623.59;;;17.86;65.14
7768;BME280;3928;42.626;23.382;2022-10-26T01:09:49;94615.03;;;17.84;65.16
7768;BME280;3928;42.626;23.382;2022-10-26T01:12:16;94597.13;;;17.78;64.93
7768;BME280;3928;42.626;23.382;2022-10-26T01:14:45;94611.41;;;17.66;65.82
7768;BME280;3928;42.626;23.382;2022-10-26T01:17:26;94615.75;;;17.66;65.98
7768;BME280;3928;42.626;23.382;2022-10-26T01:20:26;94621.84;;;17.87;65.35
7768;BME280;3928;42.626;23.382;2022-10-26T01:23:04;94619.53;;;17.80;65.77
7768;BME280;3928;42.626;23.382;2022-10-26T01:25:42;94619.13;;;17.68;66.03
7768;BME280;3928;42.626;23.382;2022-10-26T01:28:30;94614.94;;;17.64;66.44
7768;BME280;3928;42.626;23.382;2022-10-26T01:31:02;94623.59;;;17.86;65.52
7768;BME280;3928;42.626;23.382;2022-10-26T01:33:34;94614.69;;;17.93;65.31
7768;BME280;3928;42.626;23.382;2022-10-26T01:36:10;94619.63;;;17.99;65.21
7768;BME280;3928;42.626;23.382;2022-10-26T01:38:46;94623.09;;;18.00;65.10
7768;BME280;3928;42.626;23.382;2022-10-26T01:41:22;94616.97;;;18.01;64.90
7768;BME280;3928;42.626;23.382;2022-10-26T01:43:54;94618.41;;;17.86;65.37
7768;BME280;3928;42.626;23.382;2022-10-26T01:46:24;94614.56;;;17.96;64.98
7768;BME280;3928;42.626;23.382;2022-10-26T01:48:54;94617.09;;;17.98;64.62
7768;BME280;3928;42.626;23.382;2022-10-26T01:51:24;94612.09;;;17.93;64.24
7768;BME280;3928;42.626;23.382;2022-10-26T01:53:52;94618.19;;;17.92;64.01
7768;BME280;3928;42.626;23.382;2022-10-26T01:56:21;94611.44;;;17.88;64.13
7768;BME280;3928;42.626;23.382;2022-10-26T01:59:09;94612.38;;;17.86;64.17
7768;BME280;3928;42.626;23.382;2022-10-26T02:01:58;94600.66;;;17.75;63.95
7768;BME280;3928;42.626;23.382;2022-10-26T02:04:38;94608.59;;;17.72;64.03
7768;BME280;3928;42.626;23.382;2022-10-26T02:07:14;94613.94;;;17.68;64.23
7768;BME280;3928;42.626;23.382;2022-10-26T02:09:52;94610.66;;;17.63;64.25
7768;BME280;3928;42.626;23.382;2022-10-26T02:12:30;94605.00;;;17.53;64.36
7768;BME280;3928;42.626;23.382;2022-10-26T02:15:05;94592.44;;;17.42;65.03
7768;BME280;3928;42.626;23.382;2022-10-26T02:17:41;94614.88;;;17.43;65.41
7768;BME280;3928;42.626;23.382;2022-10-26T02:20:14;94614.97;;;17.40;65.60
7768;BME280;3928;42.626;23.382;2022-10-26T02:22:46;94623.91;;;17.33;65.59
7768;BME280;3928;42.626;23.382;2022-10-26T02:25:17;94634.50;;;17.27;64.96
7768;BME280;3928;42.626;23.382;2022-10-26T02:27:48;94628.47;;;17.03;64.90
7768;BME280;3928;42.626;23.382;2022-10-26T02:30:17;94636.50;;;16.47;66.46
7768;BME280;3928;42.626;23.382;2022-10-26T02:32:49;94627.59;;;16.29;68.24
7768;BME280;3928;42.626;23.382;2022-10-26T02:35:20;94628.00;;;16.17;69.72
7768;BME280;3928;42.626;23.382;2022-10-26T02:37:49;94633.63;;;16.03;72.78
7768;BME280;3928;42.626;23.382;2022-10-26T02:40:21;94637.19;;;16.01;72.79
7768;BME280;3928;42.626;23.382;2022-10-26T02:42:51;94640.72;;;15.97;73.44
7768;BME280;3928;42.626;23.382;2022-10-26T02:45:22;94637.34;;;15.95;73.42
7768;BME280;3928;42.626;23.382;2022-10-26T02:47:52;94624.69;;;15.87;74.55
7768;BME280;3928;42.626;23.382;2022-10-26T02:50:24;94636.56;;;15.93;75.14
7768;BME280;3928;42.626;23.382;2022-10-26T02:52:59;94633.97;;;15.93;75.40
7768;BME280;3928;42.626;23.382;2022-10-26T02:55:29;94629.00;;;15.87;76.74
7768;BME280;3928;42.626;23.382;2022-10-26T02:58:01;94631.09;;;15.75;76.58
7768;BME280;3928;42.626;23.382;2022-10-26T03:00:30;94635.50;;;15.72;76.84
7768;BME280;3928;42.626;23.382;2022-10-26T03:02:59;94637.06;;;15.77;76.70
7768;BME280;3928;42.626;23.382;2022-10-26T03:05:29;94635.25;;;15.79;76.24
7768;BME280;3928;42.626;23.382;2022-10-26T03:07:58;94638.97;;;15.71;75.16
7768;BME280;3928;42.626;23.382;2022-10-26T03:10:25;94633.16;;;15.64;75.48
7768;BME280;3928;42.626;23.382;2022-10-26T03:12:52;94654.50;;;15.71;75.00
7768;BME280;3928;42.626;23.382;2022-10-26T03:15:20;94657.94;;;15.71;74.12
7768;BME280;3928;42.626;23.382;2022-10-26T03:17:46;94664.94;;;15.68;73.90
7768;BME280;3928;42.626;23.382;2022-10-26T03:20:15;94657.28;;;15.65;72.96
7768;BME280;3928;42.626;23.382;2022-10-26T03:22:42;94657.41;;;15.60;72.83
7768;BME280;3928;42.626;23.382;2022-10-26T03:25:08;94660.88;;;15.59;73.16
7768;BME280;3928;42.626;23.382;2022-10-26T03:27:35;94658.47;;;15.53;72.65
7768;BME280;3928;42.626;23.382;2022-10-26T03:30:03;94667.75;;;15.60;72.85
7768;BME280;3928;42.626;23.382;2022-10-26T03:32:30;94665.09;;;15.63;72.91
7768;BME280;3928;42.626;23.382;2022-10-26T03:34:57;94669.50;;;15.60;73.30
7768;BME280;3928;42.626;23.382;2022-10-26T03:37:25;94676.44;;;15.58;73.81
7768;BME280;3928;42.626;23.382;2022-10-26T03:39:52;94668.47;;;15.36;74.43
7768;BME280;3928;42.626;23.382;2022-10-26T03:42:19;94676.28;;;15.34;75.39
7768;BME280;3928;42.626;23.382;2022-10-26T03:44:46;94675.41;;;15.34;75.51
7768;BME280;3928;42.626;23.382;2022-10-26T03:47:12;94673.63;;;15.36;75.96
7768;BME280;3928;42.626;23.382;2022-10-26T03:49:39;94671.84;;;15.38;75.61
7768;BME280;3928;42.626;23.382;2022-10-26T03:52:06;94671.41;;;15.24;76.72
7768;BME280;3928;42.626;23.382;2022-10-26T03:54:34;94670.41;;;14.98;79.05
7768;BME280;3928;42.626;23.382;2022-10-26T03:57:01;94671.63;;;14.85;80.22
7768;BME280;3928;42.626;23.382;2022-10-26T03:59:28;94609.88;;;14.45;81.34
7768;BME280;3928;42.626;23.382;2022-10-26T04:01:55;94672.63;;;14.81;82.04
7768;BME280;3928;42.626;23.382;2022-10-26T04:04:22;94673.25;;;14.89;81.77
7768;BME280;3928;42.626;23.382;2022-10-26T04:06:49;94664.44;;;14.96;80.88
7768;BME280;3928;42.626;23.382;2022-10-26T04:09:16;94673.75;;;15.02;80.83
7768;BME280;3928;42.626;23.382;2022-10-26T04:11:45;94666.78;;;15.05;80.11
7768;BME280;3928;42.626;23.382;2022-10-26T04:14:12;94681.16;;;15.14;80.25
7768;BME280;3928;42.626;23.382;2022-10-26T04:16:39;94680.16;;;15.19;79.28
7768;BME280;3928;42.626;23.382;2022-10-26T04:19:06;94681.75;;;15.24;79.97
7768;BME280;3928;42.626;23.382;2022-10-26T04:21:32;94678.31;;;15.23;78.91
7768;BME280;3928;42.626;23.382;2022-10-26T04:24:01;94676.56;;;15.24;79.23
7768;BME280;3928;42.626;23.382;2022-10-26T04:26:28;94676.56;;;15.24;79.20
7768;BME280;3928;42.626;23.382;2022-10-26T04:28:56;94675.09;;;15.15;79.07
7768;BME280;3928;42.626;23.382;2022-10-26T04:31:23;94677.72;;;15.13;80.87
7768;BME280;3928;42.626;23.382;2022-10-26T04:33:50;94676.13;;;15.09;80.40
7768;BME280;3928;42.626;23.382;2022-10-26T04:36:16;94676.16;;;15.08;80.47
7768;BME280;3928;42.626;23.382;2022-10-26T04:38:43;94675.19;;;15.12;80.53
7768;BME280;3928;42.626;23.382;2022-10-26T04:41:10;94683.09;;;15.07;80.70
7768;BME280;3928;42.626;23.382;2022-10-26T04:43:37;94683.19;;;15.04;81.15
7768;BME280;3928;42.626;23.382;2022-10-26T04:46:06;94687.56;;;15.01;81.23
7768;BME280;3928;42.626;23.382;2022-10-26T04:48:32;94686.06;;;14.94;81.38
7768;BME280;3928;42.626;23.382;2022-10-26T04:51:00;94674.22;;;14.85;82.30
7768;BME280;3928;42.626;23.382;2022-10-26T04:53:27;94686.25;;;14.86;83.18
7768;BME280;3928;42.626;23.382;2022-10-26T04:55:57;94680.31;;;14.82;83.11
7768;BME280;3928;42.626;23.382;2022-10-26T04:58:24;94689.69;;;14.86;84.21
7768;BME280;3928;42.626;23.382;2022-10-26T05:00:51;94693.91;;;14.89;83.85
7768;BME280;3928;42.626;23.382;2022-10-26T05:03:19;94700.72;;;14.93;83.75
7768;BME280;3928;42.626;23.382;2022-10-26T05:05:46;94693.97;;;14.87;84.07
7768;BME280;3928;42.626;23.382;2022-10-26T05:08:14;94705.78;;;14.96;84.94
7768;BME280;3928;42.626;23.382;2022-10-26T05:10:42;94705.59;;;15.02;83.99
7768;BME280;3928;42.626;23.382;2022-10-26T05:13:09;94703.88;;;15.03;83.16
7768;BME280;3928;42.626;23.382;2022-10-26T05:15:36;94703.00;;;15.04;83.12
7768;BME280;3928;42.626;23.382;2022-10-26T05:18:04;94692.63;;;15.05;83.69
7768;BME280;3928;42.626;23.382;2022-10-26T05:20:35;94708.75;;;15.13;83.57
7768;BME280;3928;42.626;23.382;2022-10-26T05:23:04;94705.13;;;15.20;83.71
7768;BME280;3928;42.626;23.382;2022-10-26T05:25:34;94702.03;;;15.37;83.07
7768;BME280;3928;42.626;23.382;2022-10-26T05:28:02;94588.25;;;14.78;81.63
7768;BME280;3928;42.626;23.382;2022-10-26T05:30:30;94700.50;;;15.61;82.34
7768;BME280;3928;42.626;23.382;2022-10-26T05:32:58;94716.03;;;15.61;79.86
7768;BME280;3928;42.626;23.382;2022-10-26T05:35:27;94716.81;;;15.65;81.64
7768;BME280;3928;42.626;23.382;2022-10-26T05:37:55;94722.72;;;15.68;80.62
7768;BME280;3928;42.626;23.382;2022-10-26T05:40:23;94729.41;;;15.75;80.03
7768;BME280;3928;42.626;23.382;2022-10-26T05:42:50;94734.28;;;15.85;79.96
7768;BME280;3928;42.626;23.382;2022-10-26T05:45:17;94736.63;;;15.94;80.11
7768;BME280;3928;42.626;23.382;2022-10-26T05:47:44;94739.03;;;16.00;78.75
7768;BME280;3928;42.626;23.382;2022-10-26T05:50:12;94738.81;;;16.06;78.56
7768;BME280;3928;42.626;23.382;2022-10-26T05:52:39;94739.56;;;16.11;77.21
7768;BME280;3928;42.626;23.382;2022-10-26T05:55:08;94742.13;;;16.11;79.64
7768;BME280;3928;42.626;23.382;2022-10-26T05:57:36;94745.25;;;16.22;79.05
7768;BME280;3928;42.626;23.382;2022-10-26T06:00:06;94751.50;;;16.42;79.18
7768;BME280;3928;42.626;23.382;2022-10-26T06:02:39;94753.66;;;16.55;76.31
7768;BME280;3928;42.626;23.382;2022-10-26T06:05:11;94757.19;;;16.53;75.59
7768;BME280;3928;42.626;23.382;2022-10-26T06:07:44;94755.75;;;16.72;75.16
7768;BME280;3928;42.626;23.382;2022-10-26T06:10:13;94760.13;;;16.70;73.74
7768;BME280;3928;42.626;23.382;2022-10-26T06:12:41;94766.19;;;16.69;73.89
7768;BME280;3928;42.626;23.382;2022-10-26T06:15:12;94764.41;;;16.71;74.32
7768;BME280;3928;42.626;23.382;2022-10-26T06:17:47;94772.81;;;16.78;73.80
7768;BME280;3928;42.626;23.382;2022-10-26T06:20:31;94767.41;;;16.85;73.85
7768;BME280;3928;42.626;23.382;2022-10-26T06:23:13;94768.66;;;16.99;73.83
7768;BME280;3928;42.626;23.382;2022-10-26T06:25:50;94770.59;;;17.18;74.22
7768;BME280;3928;42.626;23.382;2022-10-26T06:28:28;94770.66;;;17.40;73.53
7768;BME280;3928;42.626;23.382;2022-10-26T06:30:58;94773.38;;;17.61;73.61
7768;BME280;3928;42.626;23.382;2022-10-26T06:33:25;94764.66;;;17.87;73.07
7768;BME280;3928;42.626;23.382;2022-10-26T06:36:00;94764.69;;;18.08;71.59
7768;BME280;3928;42.626;23.382;2022-10-26T06:38:32;94768.16;;;18.31;70.74
7768;BME280;3928;42.626;23.382;2022-10-26T06:41:01;94779.53;;;18.50;69.70
7768;BME280;3928;42.626;23.382;2022-10-26T06:43:32;94769.31;;;18.67;68.95
7768;BME280;3928;42.626;23.382;2022-10-26T06:46:06;94771.81;;;18.91;68.83
7768;BME280;3928;42.626;23.382;2022-10-26T06:48:46;94770.69;;;19.18;67.66
7768;BME280;3928;42.626;23.382;2022-10-26T06:51:15;94776.25;;;19.50;66.43
7768;BME280;3928;42.626;23.382;2022-10-26T06:53:48;94775.13;;;19.76;65.69
7768;BME280;3928;42.626;23.382;2022-10-26T06:56:18;94779.16;;;20.02;65.85
7768;BME280;3928;42.626;23.382;2022-10-26T06:58:47;94789.22;;;20.28;63.03
7768;BME280;3928;42.626;23.382;2022-10-26T07:01:17;94786.63;;;20.47;60.95
7768;BME280;3928;42.626;23.382;2022-10-26T07:03:44;94788.38;;;20.47;60.01
7768;BME280;3928;42.626;23.382;2022-10-26T07:06:11;94782.03;;;20.52;60.77
7768;BME280;3928;42.626;23.382;2022-10-26T07:08:38;94785.06;;;20.62;60.64
7768;BME280;3928;42.626;23.382;2022-10-26T07:11:05;94791.38;;;20.75;60.74
7768;BME280;3928;42.626;23.382;2022-10-26T07:13:35;94797.69;;;20.88;59.95
7768;BME280;3928;42.626;23.382;2022-10-26T07:16:01;94797.25;;;20.97;59.18
7768;BME280;3928;42.626;23.382;2022-10-26T07:18:28;94744.44;;;20.75;58.63
7768;BME280;3928;42.626;23.382;2022-10-26T07:20:57;94796.75;;;21.07;58.16
7768;BME280;3928;42.626;23.382;2022-10-26T07:23:24;94796.75;;;21.07;57.69
7768;BME280;3928;42.626;23.382;2022-10-26T07:25:51;94792.31;;;20.91;57.60
7768;BME280;3928;42.626;23.382;2022-10-26T07:28:18;94787.25;;;20.88;58.35
7768;BME280;3928;42.626;23.382;2022-10-26T07:30:46;94788.84;;;20.91;58.94
7768;BME280;3928;42.626;23.382;2022-10-26T07:33:14;94787.41;;;20.85;58.76
7768;BME280;3928;42.626;23.382;2022-10-26T07:35:41;94767.66;;;20.80;58.20
7768;BME280;3928;42.626;23.382;2022-10-26T07:38:09;94784.56;;;20.90;58.27
7768;BME280;3928;42.626;23.382;2022-10-26T07:40:37;94777.50;;;20.92;57.90
7768;BME280;3928;42.626;23.382;2022-10-26T07:43:04;94787.78;;;20.95;57.34
7768;BME280;3928;42.626;23.382;2022-10-26T07:45:32;94780.19;;;20.90;57.40
7768;BME280;3928;42.626;23.382;2022-10-26T07:48:01;94767.38;;;20.86;57.46
7768;BME280;3928;42.626;23.382;2022-10-26T07:50:28;94770.34;;;20.95;57.68
7768;BME280;3928;42.626;23.382;2022-10-26T07:52:57;94779.09;;;20.77;57.79
7768;BME280;3928;42.626;23.382;2022-10-26T07:55:24;94774.50;;;20.82;57.80
7768;BME280;3928;42.626;23.382;2022-10-26T07:57:53;94783.03;;;20.86;58.29
7768;BME280;3928;42.626;23.382;2022-10-26T08:00:20;94784.03;;;21.00;58.06
7768;BME280;3928;42.626;23.382;2022-10-26T08:02:47;94781.88;;;20.91;57.02
7768;BME280;3928;42.626;23.382;2022-10-26T08:05:15;94777.88;;;21.01;56.93
7768;BME280;3928;42.626;23.382;2022-10-26T08:07:42;94784.63;;;21.06;56.22
7768;BME280;3928;42.626;23.382;2022-10-26T08:10:10;94777.97;;;21.17;55.94
7768;BME280;3928;42.626;23.382;2022-10-26T08:12:38;94776.34;;;21.15;55.95
7768;BME280;3928;42.626;23.382;2022-10-26T08:15:05;94778.50;;;21.24;55.95
7768;BME280;3928;42.626;23.382;2022-10-26T08:17:33;94771.19;;;21.32;55.59
7768;BME280;3928;42.626;23.382;2022-10-26T08:19:59;94771.31;;;21.29;55.54
7768;BME280;3928;42.626;23.382;2022-10-26T08:22:30;94779.31;;;21.43;55.90
7768;BME280;3928;42.626;23.382;2022-10-26T08:24:57;94779.34;;;21.59;54.71
7768;BME280;3928;42.626;23.382;2022-10-26T08:27:24;94773.97;;;21.78;53.59
7768;BME280;3928;42.626;23.382;2022-10-26T08:29:50;94751.47;;;21.75;52.69
7768;BME280;3928;42.626;23.382;2022-10-26T08:32:17;94769.16;;;22.03;53.50
7768;BME280;3928;42.626;23.382;2022-10-26T08:34:44;94773.41;;;22.22;51.59
7768;BME280;3928;42.626;23.382;2022-10-26T08:37:11;94774.44;;;22.35;49.98
7768;BME280;3928;42.626;23.382;2022-10-26T08:39:39;94764.81;;;22.35;49.78
7768;BME280;3928;42.626;23.382;2022-10-26T08:42:12;94763.13;;;22.50;50.22
7768;BME280;3928;42.626;23.382;2022-10-26T08:44:43;94765.63;;;22.67;49.38
7768;BME280;3928;42.626;23.382;2022-10-26T08:47:16;94767.56;;;22.80;47.69
7768;BME280;3928;42.626;23.382;2022-10-26T08:49:49;94772.97;;;22.92;48.40
7768;BME280;3928;42.626;23.382;2022-10-26T08:52:22;94772.75;;;23.11;47.06
7768;BME280;3928;42.626;23.382;2022-10-26T08:54:54;94778.03;;;23.25;47.82
7768;BME280;3928;42.626;23.382;2022-10-26T08:57:25;94775.72;;;23.49;46.89
7768;BME280;3928;42.626;23.382;2022-10-26T08:59:57;94784.88;;;23.58;42.99
7768;BME280;3928;42.626;23.382;2022-10-26T09:02:25;94767.31;;;23.44;42.00
7768;BME280;3928;42.626;23.382;2022-10-26T09:04:52;94783.94;;;23.59;42.70
7768;BME280;3928;42.626;23.382;2022-10-26T09:07:44;94774.38;;;23.86;43.17
7768;BME280;3928;42.626;23.382;2022-10-26T09:10:32;94782.41;;;24.26;42.38
7768;BME280;3928;42.626;23.382;2022-10-26T09:13:05;94787.06;;;24.49;41.07
7768;BME280;3928;42.626;23.382;2022-10-26T09:15:44;94777.47;;;24.77;41.62
7768;BME280;3928;42.626;23.382;2022-10-26T09:18:23;94782.41;;;25.08;40.46
7768;BME280;3928;42.626;23.382;2022-10-26T09:21:04;94779.31;;;25.29;39.00
7768;BME280;3928;42.626;23.382;2022-10-26T09:23:51;94768.25;;;25.11;36.60
7768;BME280;3928;42.626;23.382;2022-10-26T09:26:28;94771.91;;;25.08;36.31
7768;BME280;3928;42.626;23.382;2022-10-26T09:28:56;94773.94;;;25.18;37.81
7768;BME280;3928;42.626;23.382;2022-10-26T09:31:24;94775.47;;;25.34;37.34
7768;BME280;3928;42.626;23.382;2022-10-26T09:33:52;94772.13;;;25.58;38.14
7768;BME280;3928;42.626;23.382;2022-10-26T09:36:21;94771.56;;;25.65;36.41
7768;BME280;3928;42.626;23.382;2022-10-26T09:38:50;94780.78;;;25.85;37.19
7768;BME280;3928;42.626;23.382;2022-10-26T09:41:25;94774.53;;;26.12;35.77
7768;BME280;3928;42.626;23.382;2022-10-26T09:44:00;94764.16;;;25.85;36.30
7768;BME280;3928;42.626;23.382;2022-10-26T09:46:34;94760.75;;;25.57;37.55
7768;BME280;3928;42.626;23.382;2022-10-26T09:49:07;94766.75;;;25.47;37.62
7768;BME280;3928;42.626;23.382;2022-10-26T09:51:38;94763.84;;;25.12;38.22
7768;BME280;3928;42.626;23.382;2022-10-26T09:54:13;94762.25;;;25.22;38.00
7768;BME280;3928;42.626;23.382;2022-10-26T09:56:42;94774.31;;;25.51;37.18
7768;BME280;3928;42.626;23.382;2022-10-26T09:59:11;94753.63;;;25.85;37.31
7768;BME280;3928;42.626;23.382;2022-10-26T10:01:40;94760.97;;;26.18;36.45
7768;BME280;3928;42.626;23.382;2022-10-26T10:04:17;94755.09;;;26.51;35.27
7768;BME280;3928;42.626;23.382;2022-10-26T10:06:47;94735.22;;;26.71;36.00
7768;BME280;3928;42.626;23.382;2022-10-26T10:09:15;94750.44;;;27.15;35.22
7768;BME280;3928;42.626;23.382;2022-10-26T10:11:46;94740.72;;;27.51;34.55
7768;BME280;3928;42.626;23.382;2022-10-26T10:14:20;94747.97;;;27.93;33.62
7768;BME280;3928;42.626;23.382;2022-10-26T10:16:52;94742.69;;;28.16;32.33
7768;BME280;3928;42.626;23.382;2022-10-26T10:19:25;94688.84;;;28.07;32.94
7768;BME280;3928;42.626;23.382;2022-10-26T10:21:55;94741.25;;;28.57;31.77
7768;BME280;3928;42.626;23.382;2022-10-26T10:24:27;94741.41;;;28.76;31.80
7768;BME280;3928;42.626;23.382;2022-10-26T10:26:58;94738.13;;;29.06;31.05
7768;BME280;3928;42.626;23.382;2022-10-26T10:29:25;94743.03;;;29.31;30.78
7768;BME280;3928;42.626;23.382;2022-10-26T10:31:56;94731.13;;;29.58;30.97
7768;BME280;3928;42.626;23.382;2022-10-26T10:34:24;94727.84;;;29.86;30.09
7768;BME280;3928;42.626;23.382;2022-10-26T10:36:51;94728.19;;;30.03;30.50
7768;BME280;3928;42.626;23.382;2022-10-26T10:39:36;94731.50;;;30.25;29.25
7768;BME280;3928;42.626;23.382;2022-10-26T10:42:13;94725.28;;;30.36;29.02
7768;BME280;3928;42.626;23.382;2022-10-26T10:44:42;94723.41;;;30.27;29.27
7768;BME280;3928;42.626;23.382;2022-10-26T10:47:20;94716.78;;;30.33;29.22
7768;BME280;3928;42.626;23.382;2022-10-26T10:49:53;94720.53;;;30.40;28.37
7768;BME280;3928;42.626;23.382;2022-10-26T10:52:24;94719.66;;;29.68;28.71
7768;BME280;3928;42.626;23.382;2022-10-26T10:55:15;94716.31;;;28.93;29.56
7768;BME280;3928;42.626;23.382;2022-10-26T10:57:58;94712.91;;;28.59;30.69
7768;BME280;3928;42.626;23.382;2022-10-26T11:00:27;94703.78;;;28.51;30.59
7768;BME280;3928;42.626;23.382;2022-10-26T11:03:08;94707.16;;;28.53;31.53
7768;BME280;3928;42.626;23.382;2022-10-26T11:05:59;94701.75;;;28.87;31.53
7768;BME280;3928;42.626;23.382;2022-10-26T11:08:32;94700.09;;;29.39;30.47
7768;BME280;3928;42.626;23.382;2022-10-26T11:11:05;94689.50;;;29.81;29.90
7768;BME280;3928;42.626;23.382;2022-10-26T11:13:38;94703.72;;;30.10;29.08
7768;BME280;3928;42.626;23.382;2022-10-26T11:16:12;94685.22;;;30.30;29.59
7768;BME280;3928;42.626;23.382;2022-10-26T11:18:42;94689.41;;;30.72;28.82
7768;BME280;3928;42.626;23.382;2022-10-26T11:21:18;94697.53;;;31.19;28.24
7768;BME280;3928;42.626;23.382;2022-10-26T11:23:51;94691.88;;;31.61;27.34
7768;BME280;3928;42.626;23.382;2022-10-26T11:26:28;94687.34;;;31.90;27.63
7768;BME280;3928;42.626;23.382;2022-10-26T11:29:02;94694.72;;;31.96;26.78
7768;BME280;3928;42.626;23.382;2022-10-26T11:31:33;94689.88;;;31.72;27.82
7768;BME280;3928;42.626;23.382;2022-10-26T11:34:11;94684.31;;;31.66;26.86
7768;BME280;3928;42.626;23.382;2022-10-26T11:36:41;94690.69;;;31.92;27.51
7768;BME280;3928;42.626;23.382;2022-10-26T11:39:15;94691.25;;;32.33;27.37
7768;BME280;3928;42.626;23.382;2022-10-26T11:41:48;94685.50;;;32.83;26.83
7768;BME280;3928;42.626;23.382;2022-10-26T11:44:39;94684.44;;;33.11;26.15
7768;BME280;3928;42.626;23.382;2022-10-26T11:47:13;94678.34;;;33.37;25.72
7768;BME280;3928;42.626;23.382;2022-10-26T11:49:46;94686.88;;;33.66;25.93
7768;BME280;3928;42.626;23.382;2022-10-26T11:52:19;94664.13;;;33.98;24.99
7768;BME280;3928;42.626;23.382;2022-10-26T11:54:52;94673.31;;;34.38;24.79
7768;BME280;3928;42.626;23.382;2022-10-26T11:57:21;94672.25;;;34.73;24.34
7768;BME280;3928;42.626;23.382;2022-10-26T11:59:53;94675.50;;;35.01;23.90
7768;BME280;3928;42.626;23.382;2022-10-26T12:02:24;94673.19;;;35.06;23.65
7768;BME280;3928;42.626;23.382;2022-10-26T12:04:53;94673.16;;;35.14;23.42
7768;BME280;3928;42.626;23.382;2022-10-26T12:07:25;94674.19;;;35.29;22.97
7768;BME280;3928;42.626;23.382;2022-10-26T12:09:55;94668.84;;;35.45;22.57
7768;BME280;3928;42.626;23.382;2022-10-26T12:12:27;94672.16;;;35.64;22.26
7768;BME280;3928;42.626;23.382;2022-10-26T12:15:06;94673.81;;;35.73;21.91
7768;BME280;3928;42.626;23.382;2022-10-26T12:17:45;94651.97;;;35.78;22.52
7768;BME280;3928;42.626;23.382;2022-10-26T12:20:36;94671.75;;;36.16;21.77
7768;BME280;3928;42.626;23.382;2022-10-26T12:23:07;94670.72;;;36.25;21.10
7768;BME280;3928;42.626;23.382;2022-10-26T12:25:35;94671.13;;;36.45;21.57
7768;BME280;3928;42.626;23.382;2022-10-26T12:28:02;94670.41;;;36.59;20.80
7768;BME280;3928;42.626;23.382;2022-10-26T12:30:31;94670.53;;;36.66;20.34
7768;BME280;3928;42.626;23.382;2022-10-26T12:32:59;94665.91;;;36.59;20.76
7768;BME280;3928;42.626;23.382;2022-10-26T12:35:33;94661.84;;;36.64;20.31
7768;BME280;3928;42.626;23.382;2022-10-26T12:41:18;94654.59;;;36.49;19.79
7768;BME280;3928;42.626;23.382;2022-10-26T12:43:46;94671.47;;;36.50;19.34
7768;BME280;3928;42.626;23.382;2022-10-26T12:46:42;94671.03;;;36.38;19.82
7768;BME280;3928;42.626;23.382;2022-10-26T12:52:48;94663.63;;;36.48;19.21
7768;BME280;3928;42.626;23.382;2022-10-26T12:55:41;94662.66;;;36.41;19.47
7768;BME280;3928;42.626;23.382;2022-10-26T13:01:48;94660.53;;;36.20;19.09
7768;BME280;3928;42.626;23.382;2022-10-26T13:04:41;94668.72;;;36.11;18.86
7768;BME280;3928;42.626;23.382;2022-10-26T13:07:18;94668.41;;;36.14;19.53
7768;BME280;3928;42.626;23.382;2022-10-26T13:09:51;94660.06;;;36.09;18.81
7768;BME280;3928;42.626;23.382;2022-10-26T13:12:19;94670.13;;;35.82;19.59
7768;BME280;3928;42.626;23.382;2022-10-26T13:14:55;94671.16;;;35.89;19.64
7768;BME280;3928;42.626;23.382;2022-10-26T13:17:26;94681.78;;;36.06;19.07
7768;BME280;3928;42.626;23.382;2022-10-26T13:19:55;94669.75;;;36.10;19.53
7768;BME280;3928;42.626;23.382;2022-10-26T13:22:23;94651.47;;;36.29;18.62
7768;BME280;3928;42.626;23.382;2022-10-26T13:24:52;94677.44;;;36.60;18.87
7768;BME280;3928;42.626;23.382;2022-10-26T13:27:38;94665.84;;;36.68;18.84
7768;BME280;3928;42.626;23.382;2022-10-26T13:30:33;94683.97;;;36.88;17.89
7768;BME280;3928;42.626;23.382;2022-10-26T13:33:06;94681.25;;;36.97;18.09
7768;BME280;3928;42.626;23.382;2022-10-26T13:35:39;94676.50;;;37.07;17.90
7768;BME280;3928;42.626;23.382;2022-10-26T13:38:09;94681.69;;;37.08;17.63
7768;BME280;3928;42.626;23.382;2022-10-26T13:40:37;94680.19;;;36.75;18.19